This is the latest recevied weather packets stored in our database for station/object KO6SRA-13. If no packets are shown the sender has not sent any weather packets the latest 10 day(s).
| Time | Temp. | Humidity | Pressure | Rain* | Wind** | Luminosity | Snow |
|---|---|---|---|---|---|---|---|
| 1787603922 | 19.44° C | 74% | 1018.8 hPa | 0 mm | - | 704 W/m² | - |
| 1787603617 | 19.44° C | 74% | 1019 hPa | 0 mm | - | 714 W/m² | - |
| 1787603313 | 18.89° C | 74% | 1019 hPa | 0 mm | - | 714 W/m² | - |
| 1787603008 | 18.89° C | 75% | 1019 hPa | 0 mm | - | 687 W/m² | - |
| 1787602705 | 18.89° C | 76% | 1019 hPa | 0 mm | - | 706 W/m² | - |
| 1787602399 | 19.44° C | 75% | 1019.1 hPa | 0 mm | - | 718 W/m² | - |
| 1787602094 | 19.44° C | 74% | 1019.3 hPa | 0 mm | - | 747 W/m² | - |
| 1787601793 | 19.44° C | 75% | 1019 hPa | 0 mm | - | 743 W/m² | - |
| 1787601489 | 19.44° C | 74% | 1019.2 hPa | 0 mm | - | 729 W/m² | - |
| 1787601188 | 20° C | 73% | 1019.2 hPa | 0 mm | - | 747 W/m² | - |
| 1787600887 | 19.44° C | 75% | 1019.1 hPa | 0 mm | - | 751 W/m² | - |
| 1787600582 | 20° C | 73% | 1019.4 hPa | 0 mm | - | 765 W/m² | - |
| 1787600278 | 19.44° C | 75% | 1019.3 hPa | 0 mm | - | 785 W/m² | - |
| 1787599974 | 19.44° C | 74% | 1019.4 hPa | 0 mm | - | 764 W/m² | - |
| 1787599670 | 19.44° C | 75% | 1019.4 hPa | 0 mm | - | 734 W/m² | - |
| 1787599366 | 18.89° C | 76% | 1019.5 hPa | 0 mm | - | 687 W/m² | - |
| 1787599062 | 19.44° C | 75% | 1019.2 hPa | 0 mm | - | 670 W/m² | - |
| 1787598758 | 18.89° C | 76% | 1019.3 hPa | 0 mm | - | 743 W/m² | - |
| 1787598453 | 19.44° C | 75% | 1019.4 hPa | 0 mm | - | 767 W/m² | - |
| 1787598149 | 18.89° C | 76% | 1019.2 hPa | 0 mm | - | 736 W/m² | - |
| 1787597844 | 19.44° C | 73% | 1019.4 hPa | 0 mm | - | 737 W/m² | - |
| 1787597543 | 18.33° C | 79% | 1019.5 hPa | 0 mm | - | 794 W/m² | - |
| 1787597242 | 18.33° C | 78% | 1019.4 hPa | 0 mm | - | 850 W/m² | - |
| 1787596938 | 18.89° C | 75% | 1019.4 hPa | 0 mm | - | 881 W/m² | - |
| 1787596635 | 19.44° C | 75% | 1019.4 hPa | 0 mm | - | 886 W/m² | - |
* Rain latest hour (hover to see other rain measurements)
** Current wind speed in m/s (hover to see current wind gust speed)